sensor_id;sensor_type;location;lat;lon;timestamp;temperature;humidity
51950;DHT22;37974;53.218;6.640;2023-04-15T00:00:05;5.50;99.90
51950;DHT22;37974;53.218;6.640;2023-04-15T00:02:31;5.50;99.90
51950;DHT22;37974;53.218;6.640;2023-04-15T00:04:57;5.40;99.90
51950;DHT22;37974;53.218;6.640;2023-04-15T00:07:23;5.50;99.90
51950;DHT22;37974;53.218;6.640;2023-04-15T00:09:48;5.50;99.90
51950;DHT22;37974;53.218;6.640;2023-04-15T00:12:14;5.60;99.90
51950;DHT22;37974;53.218;6.640;2023-04-15T00:14:40;5.90;99.90
51950;DHT22;37974;53.218;6.640;2023-04-15T00:17:05;5.70;99.90
51950;DHT22;37974;53.218;6.640;2023-04-15T00:19:31;5.80;99.90
51950;DHT22;37974;53.218;6.640;2023-04-15T00:21:58;5.80;99.90
51950;DHT22;37974;53.218;6.640;2023-04-15T00:24:24;6.50;99.90
51950;DHT22;37974;53.218;6.640;2023-04-15T00:26:49;5.90;99.90
51950;DHT22;37974;53.218;6.640;2023-04-15T00:29:15;6.00;99.90
51950;DHT22;37974;53.218;6.640;2023-04-15T00:31:40;5.90;99.90
51950;DHT22;37974;53.218;6.640;2023-04-15T00:34:07;5.90;99.90
51950;DHT22;37974;53.218;6.640;2023-04-15T00:36:32;6.00;99.90
51950;DHT22;37974;53.218;6.640;2023-04-15T00:38:59;5.90;99.90
51950;DHT22;37974;53.218;6.640;2023-04-15T00:41:25;6.10;99.90
51950;DHT22;37974;53.218;6.640;2023-04-15T00:43:51;5.80;99.90
51950;DHT22;37974;53.218;6.640;2023-04-15T00:46:18;6.40;99.90
51950;DHT22;37974;53.218;6.640;2023-04-15T00:48:46;5.80;99.90
51950;DHT22;37974;53.218;6.640;2023-04-15T00:51:12;5.90;99.90
51950;DHT22;37974;53.218;6.640;2023-04-15T00:53:38;5.70;99.90
51950;DHT22;37974;53.218;6.640;2023-04-15T00:56:05;5.90;99.90
51950;DHT22;37974;53.218;6.640;2023-04-15T00:58:31;5.70;99.90
51950;DHT22;37974;53.218;6.640;2023-04-15T01:00:57;6.00;99.90
51950;DHT22;37974;53.218;6.640;2023-04-15T01:03:24;5.60;99.90
51950;DHT22;37974;53.218;6.640;2023-04-15T01:05:50;5.50;99.90
51950;DHT22;37974;53.218;6.640;2023-04-15T01:08:27;5.90;99.90
51950;DHT22;37974;53.218;6.640;2023-04-15T01:10:55;5.60;99.90
51950;DHT22;37974;53.218;6.640;2023-04-15T01:13:22;5.40;99.90
51950;DHT22;37974;53.218;6.640;2023-04-15T01:15:49;5.30;99.90
51950;DHT22;37974;53.218;6.640;2023-04-15T01:18:15;5.30;99.90
51950;DHT22;37974;53.218;6.640;2023-04-15T01:20:40;5.30;99.90
51950;DHT22;37974;53.218;6.640;2023-04-15T01:23:06;5.20;99.90
51950;DHT22;37974;53.218;6.640;2023-04-15T01:25:33;5.10;99.90
51950;DHT22;37974;53.218;6.640;2023-04-15T01:27:59;5.40;99.90
51950;DHT22;37974;53.218;6.640;2023-04-15T01:30:26;5.00;99.90
51950;DHT22;37974;53.218;6.640;2023-04-15T01:32:52;5.00;99.90
51950;DHT22;37974;53.218;6.640;2023-04-15T01:35:18;5.00;99.90
51950;DHT22;37974;53.218;6.640;2023-04-15T01:37:45;5.20;99.90
51950;DHT22;37974;53.218;6.640;2023-04-15T01:40:11;5.00;99.90
51950;DHT22;37974;53.218;6.640;2023-04-15T01:42:38;5.30;99.90
51950;DHT22;37974;53.218;6.640;2023-04-15T01:45:04;4.90;99.90
51950;DHT22;37974;53.218;6.640;2023-04-15T01:47:31;4.90;99.90
51950;DHT22;37974;53.218;6.640;2023-04-15T01:49:57;5.40;99.90
51950;DHT22;37974;53.218;6.640;2023-04-15T01:52:23;4.80;99.90
51950;DHT22;37974;53.218;6.640;2023-04-15T01:54:50;4.80;99.90
51950;DHT22;37974;53.218;6.640;2023-04-15T01:57:16;5.10;99.90
51950;DHT22;37974;53.218;6.640;2023-04-15T01:59:43;4.80;99.90
51950;DHT22;37974;53.218;6.640;2023-04-15T02:02:09;5.00;99.90
51950;DHT22;37974;53.218;6.640;2023-04-15T02:04:34;4.70;99.90
51950;DHT22;37974;53.218;6.640;2023-04-15T02:07:00;4.70;99.90
51950;DHT22;37974;53.218;6.640;2023-04-15T02:09:26;4.90;99.90
51950;DHT22;37974;53.218;6.640;2023-04-15T02:11:52;4.60;99.90
51950;DHT22;37974;53.218;6.640;2023-04-15T02:14:18;4.70;99.90
51950;DHT22;37974;53.218;6.640;2023-04-15T02:16:44;4.60;99.90
51950;DHT22;37974;53.218;6.640;2023-04-15T02:19:10;4.90;99.90
51950;DHT22;37974;53.218;6.640;2023-04-15T02:21:35;4.50;99.90
51950;DHT22;37974;53.218;6.640;2023-04-15T02:24:01;4.40;99.90
51950;DHT22;37974;53.218;6.640;2023-04-15T02:26:27;5.20;99.90
51950;DHT22;37974;53.218;6.640;2023-04-15T02:28:56;4.40;99.90
51950;DHT22;37974;53.218;6.640;2023-04-15T02:31:22;4.40;99.90
51950;DHT22;37974;53.218;6.640;2023-04-15T02:33:47;4.50;99.90
51950;DHT22;37974;53.218;6.640;2023-04-15T02:36:13;4.60;99.90
51950;DHT22;37974;53.218;6.640;2023-04-15T02:38:39;4.30;99.90
51950;DHT22;37974;53.218;6.640;2023-04-15T02:41:07;4.30;99.90
51950;DHT22;37974;53.218;6.640;2023-04-15T02:43:33;5.10;99.90
51950;DHT22;37974;53.218;6.640;2023-04-15T02:45:58;4.30;99.90
51950;DHT22;37974;53.218;6.640;2023-04-15T02:48:24;4.90;99.90
51950;DHT22;37974;53.218;6.640;2023-04-15T02:50:50;4.60;99.90
51950;DHT22;37974;53.218;6.640;2023-04-15T02:53:16;4.30;99.90
51950;DHT22;37974;53.218;6.640;2023-04-15T02:55:42;4.70;99.90
51950;DHT22;37974;53.218;6.640;2023-04-15T02:58:07;4.90;99.90
51950;DHT22;37974;53.218;6.640;2023-04-15T03:00:33;4.80;99.90
51950;DHT22;37974;53.218;6.640;2023-04-15T03:03:04;4.30;99.90
51950;DHT22;37974;53.218;6.640;2023-04-15T03:05:30;4.20;99.90
51950;DHT22;37974;53.218;6.640;2023-04-15T03:07:56;4.20;99.90
51950;DHT22;37974;53.218;6.640;2023-04-15T03:10:21;4.40;99.90
51950;DHT22;37974;53.218;6.640;2023-04-15T03:12:47;4.50;99.90
51950;DHT22;37974;53.218;6.640;2023-04-15T03:15:14;4.40;99.90
51950;DHT22;37974;53.218;6.640;2023-04-15T03:17:41;4.70;99.90
51950;DHT22;37974;53.218;6.640;2023-04-15T03:20:06;4.30;99.90
51950;DHT22;37974;53.218;6.640;2023-04-15T03:22:33;4.20;99.90
51950;DHT22;37974;53.218;6.640;2023-04-15T03:24:58;4.10;99.90
51950;DHT22;37974;53.218;6.640;2023-04-15T03:27:25;4.80;99.90
51950;DHT22;37974;53.218;6.640;2023-04-15T03:29:50;4.20;99.90
51950;DHT22;37974;53.218;6.640;2023-04-15T03:32:16;4.10;99.90
51950;DHT22;37974;53.218;6.640;2023-04-15T03:34:42;4.10;99.90
51950;DHT22;37974;53.218;6.640;2023-04-15T03:37:08;4.70;99.90
51950;DHT22;37974;53.218;6.640;2023-04-15T03:39:34;4.20;99.90
51950;DHT22;37974;53.218;6.640;2023-04-15T03:42:00;4.30;99.90
51950;DHT22;37974;53.218;6.640;2023-04-15T03:44:26;5.10;99.90
51950;DHT22;37974;53.218;6.640;2023-04-15T03:46:53;4.20;99.90
51950;DHT22;37974;53.218;6.640;2023-04-15T03:49:19;4.20;99.90
51950;DHT22;37974;53.218;6.640;2023-04-15T03:51:45;4.20;99.90
51950;DHT22;37974;53.218;6.640;2023-04-15T03:54:11;4.20;99.90
51950;DHT22;37974;53.218;6.640;2023-04-15T03:56:39;4.50;99.90
51950;DHT22;37974;53.218;6.640;2023-04-15T03:59:05;4.60;99.90
51950;DHT22;37974;53.218;6.640;2023-04-15T04:01:31;4.50;99.90
51950;DHT22;37974;53.218;6.640;2023-04-15T04:03:56;4.80;99.90
51950;DHT22;37974;53.218;6.640;2023-04-15T04:06:22;4.30;99.90
51950;DHT22;37974;53.218;6.640;2023-04-15T04:08:48;4.40;99.90
51950;DHT22;37974;53.218;6.640;2023-04-15T04:11:13;4.10;99.90
51950;DHT22;37974;53.218;6.640;2023-04-15T04:13:39;4.30;99.90
51950;DHT22;37974;53.218;6.640;2023-04-15T04:16:05;4.30;99.90
51950;DHT22;37974;53.218;6.640;2023-04-15T04:18:31;4.20;99.90
51950;DHT22;37974;53.218;6.640;2023-04-15T04:20:57;4.00;99.90
51950;DHT22;37974;53.218;6.640;2023-04-15T04:23:23;4.60;99.90
51950;DHT22;37974;53.218;6.640;2023-04-15T04:25:49;4.00;99.90
51950;DHT22;37974;53.218;6.640;2023-04-15T04:28:15;4.00;99.90
51950;DHT22;37974;53.218;6.640;2023-04-15T04:30:41;4.10;99.90
51950;DHT22;37974;53.218;6.640;2023-04-15T04:33:07;4.10;99.90
51950;DHT22;37974;53.218;6.640;2023-04-15T04:35:32;4.20;99.90
51950;DHT22;37974;53.218;6.640;2023-04-15T04:38:00;4.70;99.90
51950;DHT22;37974;53.218;6.640;2023-04-15T04:40:26;3.80;99.90
51950;DHT22;37974;53.218;6.640;2023-04-15T04:42:52;4.10;99.90
51950;DHT22;37974;53.218;6.640;2023-04-15T04:45:19;3.70;99.90
51950;DHT22;37974;53.218;6.640;2023-04-15T04:47:44;3.70;99.90
51950;DHT22;37974;53.218;6.640;2023-04-15T04:50:11;3.70;99.90
51950;DHT22;37974;53.218;6.640;2023-04-15T04:52:37;3.70;99.90
51950;DHT22;37974;53.218;6.640;2023-04-15T04:55:03;3.70;99.90
51950;DHT22;37974;53.218;6.640;2023-04-15T04:57:29;3.60;99.90
51950;DHT22;37974;53.218;6.640;2023-04-15T04:59:55;3.70;99.90
51950;DHT22;37974;53.218;6.640;2023-04-15T05:02:21;4.30;99.90
51950;DHT22;37974;53.218;6.640;2023-04-15T05:04:47;3.60;99.90
51950;DHT22;37974;53.218;6.640;2023-04-15T05:07:14;4.50;99.90
51950;DHT22;37974;53.218;6.640;2023-04-15T05:09:40;4.80;99.90
51950;DHT22;37974;53.218;6.640;2023-04-15T05:12:06;3.80;99.90
51950;DHT22;37974;53.218;6.640;2023-04-15T05:14:33;3.90;99.90
51950;DHT22;37974;53.218;6.640;2023-04-15T05:16:59;3.90;99.90
51950;DHT22;37974;53.218;6.640;2023-04-15T05:19:25;3.90;99.90
51950;DHT22;37974;53.218;6.640;2023-04-15T05:21:50;4.60;99.90
51950;DHT22;37974;53.218;6.640;2023-04-15T05:24:16;4.30;99.90
51950;DHT22;37974;53.218;6.640;2023-04-15T05:26:42;4.20;99.90
51950;DHT22;37974;53.218;6.640;2023-04-15T05:29:08;4.30;99.90
51950;DHT22;37974;53.218;6.640;2023-04-15T05:31:34;4.90;99.90
51950;DHT22;37974;53.218;6.640;2023-04-15T05:33:59;4.60;99.90
51950;DHT22;37974;53.218;6.640;2023-04-15T05:36:25;4.90;99.90
51950;DHT22;37974;53.218;6.640;2023-04-15T05:38:52;4.70;99.90
51950;DHT22;37974;53.218;6.640;2023-04-15T05:41:17;4.80;99.90
51950;DHT22;37974;53.218;6.640;2023-04-15T05:43:43;5.60;99.90
51950;DHT22;37974;53.218;6.640;2023-04-15T05:46:09;5.00;99.90
51950;DHT22;37974;53.218;6.640;2023-04-15T05:48:34;5.00;99.90
51950;DHT22;37974;53.218;6.640;2023-04-15T05:51:00;5.20;99.90
51950;DHT22;37974;53.218;6.640;2023-04-15T05:53:26;5.30;99.90
51950;DHT22;37974;53.218;6.640;2023-04-15T05:55:52;5.40;99.90
51950;DHT22;37974;53.218;6.640;2023-04-15T05:58:17;5.60;99.90
51950;DHT22;37974;53.218;6.640;2023-04-15T06:00:43;6.00;99.90
51950;DHT22;37974;53.218;6.640;2023-04-15T06:03:10;6.10;99.90
51950;DHT22;37974;53.218;6.640;2023-04-15T06:05:36;5.70;99.90
51950;DHT22;37974;53.218;6.640;2023-04-15T06:08:02;6.20;99.90
51950;DHT22;37974;53.218;6.640;2023-04-15T06:10:27;6.20;99.90
51950;DHT22;37974;53.218;6.640;2023-04-15T06:12:53;5.90;99.90
51950;DHT22;37974;53.218;6.640;2023-04-15T06:15:19;6.70;99.90
51950;DHT22;37974;53.218;6.640;2023-04-15T06:17:45;5.90;99.90
51950;DHT22;37974;53.218;6.640;2023-04-15T06:20:11;5.90;99.90
51950;DHT22;37974;53.218;6.640;2023-04-15T06:22:37;6.00;99.90
51950;DHT22;37974;53.218;6.640;2023-04-15T06:25:04;6.20;99.90
51950;DHT22;37974;53.218;6.640;2023-04-15T06:27:30;6.20;99.90
51950;DHT22;37974;53.218;6.640;2023-04-15T06:29:55;6.30;99.90
51950;DHT22;37974;53.218;6.640;2023-04-15T06:32:21;6.60;99.90
51950;DHT22;37974;53.218;6.640;2023-04-15T06:34:47;6.40;99.90
51950;DHT22;37974;53.218;6.640;2023-04-15T06:37:12;6.60;99.90
51950;DHT22;37974;53.218;6.640;2023-04-15T06:39:41;6.90;99.90
51950;DHT22;37974;53.218;6.640;2023-04-15T06:42:07;6.60;99.90
51950;DHT22;37974;53.218;6.640;2023-04-15T06:44:34;7.10;99.90
51950;DHT22;37974;53.218;6.640;2023-04-15T06:47:00;7.00;99.90
51950;DHT22;37974;53.218;6.640;2023-04-15T06:49:26;7.10;99.90
51950;DHT22;37974;53.218;6.640;2023-04-15T06:51:52;7.20;99.90
51950;DHT22;37974;53.218;6.640;2023-04-15T06:54:18;7.60;99.90
51950;DHT22;37974;53.218;6.640;2023-04-15T06:56:43;7.40;99.90
51950;DHT22;37974;53.218;6.640;2023-04-15T06:59:09;7.40;99.90
51950;DHT22;37974;53.218;6.640;2023-04-15T07:01:35;7.70;99.90
51950;DHT22;37974;53.218;6.640;2023-04-15T07:04:01;7.50;99.90
51950;DHT22;37974;53.218;6.640;2023-04-15T07:06:26;7.60;99.90
51950;DHT22;37974;53.218;6.640;2023-04-15T07:08:52;7.70;99.90
51950;DHT22;37974;53.218;6.640;2023-04-15T07:11:19;7.80;99.90
51950;DHT22;37974;53.218;6.640;2023-04-15T07:13:45;7.90;99.90
51950;DHT22;37974;53.218;6.640;2023-04-15T07:16:11;8.00;99.90
51950;DHT22;37974;53.218;6.640;2023-04-15T07:18:37;8.10;99.90
51950;DHT22;37974;53.218;6.640;2023-04-15T07:21:03;8.10;99.90
51950;DHT22;37974;53.218;6.640;2023-04-15T07:23:28;8.20;99.90
51950;DHT22;37974;53.218;6.640;2023-04-15T07:25:54;8.20;99.90
51950;DHT22;37974;53.218;6.640;2023-04-15T07:28:21;8.70;99.90
51950;DHT22;37974;53.218;6.640;2023-04-15T07:30:47;8.40;99.90
51950;DHT22;37974;53.218;6.640;2023-04-15T07:33:13;8.40;99.90
51950;DHT22;37974;53.218;6.640;2023-04-15T07:35:39;8.40;99.90
51950;DHT22;37974;53.218;6.640;2023-04-15T07:38:04;8.50;99.90
51950;DHT22;37974;53.218;6.640;2023-04-15T07:40:31;8.50;99.90
51950;DHT22;37974;53.218;6.640;2023-04-15T07:43:00;8.50;99.90
51950;DHT22;37974;53.218;6.640;2023-04-15T07:45:26;8.60;99.90
51950;DHT22;37974;53.218;6.640;2023-04-15T07:47:52;8.60;99.90
51950;DHT22;37974;53.218;6.640;2023-04-15T07:50:17;8.50;99.90
51950;DHT22;37974;53.218;6.640;2023-04-15T07:52:44;8.50;99.90
51950;DHT22;37974;53.218;6.640;2023-04-15T07:55:10;8.40;99.90
51950;DHT22;37974;53.218;6.640;2023-04-15T07:57:36;8.40;99.90
51950;DHT22;37974;53.218;6.640;2023-04-15T08:00:03;8.30;99.90
51950;DHT22;37974;53.218;6.640;2023-04-15T08:02:32;8.30;99.90
51950;DHT22;37974;53.218;6.640;2023-04-15T08:04:58;8.30;99.90
51950;DHT22;37974;53.218;6.640;2023-04-15T08:07:24;8.30;99.90
51950;DHT22;37974;53.218;6.640;2023-04-15T08:09:50;8.30;99.90
51950;DHT22;37974;53.218;6.640;2023-04-15T08:12:16;8.30;99.90
51950;DHT22;37974;53.218;6.640;2023-04-15T08:14:42;8.30;99.90
51950;DHT22;37974;53.218;6.640;2023-04-15T08:17:08;8.30;99.90
51950;DHT22;37974;53.218;6.640;2023-04-15T08:19:34;8.30;99.90
51950;DHT22;37974;53.218;6.640;2023-04-15T08:22:00;8.40;99.90
51950;DHT22;37974;53.218;6.640;2023-04-15T08:24:25;8.40;99.90
51950;DHT22;37974;53.218;6.640;2023-04-15T08:26:52;8.40;99.90
51950;DHT22;37974;53.218;6.640;2023-04-15T08:29:18;8.40;99.90
51950;DHT22;37974;53.218;6.640;2023-04-15T08:31:44;8.40;99.90
51950;DHT22;37974;53.218;6.640;2023-04-15T08:34:11;8.40;99.90
51950;DHT22;37974;53.218;6.640;2023-04-15T08:36:37;8.40;99.90
51950;DHT22;37974;53.218;6.640;2023-04-15T08:39:03;8.40;99.90
51950;DHT22;37974;53.218;6.640;2023-04-15T08:41:38;8.40;99.90
51950;DHT22;37974;53.218;6.640;2023-04-15T08:44:05;8.40;99.90
51950;DHT22;37974;53.218;6.640;2023-04-15T08:46:31;8.40;99.90
51950;DHT22;37974;53.218;6.640;2023-04-15T08:49:00;8.40;99.90
51950;DHT22;37974;53.218;6.640;2023-04-15T08:51:27;8.30;99.90
51950;DHT22;37974;53.218;6.640;2023-04-15T08:53:53;8.30;99.90
51950;DHT22;37974;53.218;6.640;2023-04-15T08:56:23;8.30;99.90
51950;DHT22;37974;53.218;6.640;2023-04-15T08:58:49;8.30;99.90
51950;DHT22;37974;53.218;6.640;2023-04-15T09:01:15;8.40;99.90
51950;DHT22;37974;53.218;6.640;2023-04-15T09:03:41;8.40;99.90
51950;DHT22;37974;53.218;6.640;2023-04-15T09:06:08;8.50;99.90
51950;DHT22;37974;53.218;6.640;2023-04-15T09:08:34;9.00;99.90
51950;DHT22;37974;53.218;6.640;2023-04-15T09:11:01;8.60;99.90
51950;DHT22;37974;53.218;6.640;2023-04-15T09:13:27;8.60;99.90
51950;DHT22;37974;53.218;6.640;2023-04-15T09:15:54;8.60;99.90
51950;DHT22;37974;53.218;6.640;2023-04-15T09:18:30;8.70;99.90
51950;DHT22;37974;53.218;6.640;2023-04-15T09:21:04;8.80;99.90
51950;DHT22;37974;53.218;6.640;2023-04-15T09:23:31;8.90;99.90
51950;DHT22;37974;53.218;6.640;2023-04-15T09:25:57;9.00;99.90
51950;DHT22;37974;53.218;6.640;2023-04-15T09:28:24;9.10;99.90
51950;DHT22;37974;53.218;6.640;2023-04-15T09:30:56;9.20;99.90
51950;DHT22;37974;53.218;6.640;2023-04-15T09:33:23;9.20;99.90
51950;DHT22;37974;53.218;6.640;2023-04-15T09:36:00;9.30;99.90
51950;DHT22;37974;53.218;6.640;2023-04-15T09:38:26;9.30;99.90
51950;DHT22;37974;53.218;6.640;2023-04-15T09:40:52;9.40;99.90
51950;DHT22;37974;53.218;6.640;2023-04-15T09:43:17;9.50;99.90
51950;DHT22;37974;53.218;6.640;2023-04-15T09:45:48;9.70;99.90
51950;DHT22;37974;53.218;6.640;2023-04-15T09:48:23;9.60;99.90
51950;DHT22;37974;53.218;6.640;2023-04-15T09:50:51;9.70;99.90
51950;DHT22;37974;53.218;6.640;2023-04-15T09:53:20;9.70;99.90
51950;DHT22;37974;53.218;6.640;2023-04-15T09:55:53;9.70;99.90
51950;DHT22;37974;53.218;6.640;2023-04-15T09:58:25;9.80;99.90
51950;DHT22;37974;53.218;6.640;2023-04-15T10:00:52;9.80;99.90
51950;DHT22;37974;53.218;6.640;2023-04-15T10:03:20;9.90;99.90
51950;DHT22;37974;53.218;6.640;2023-04-15T10:05:48;10.10;99.90
51950;DHT22;37974;53.218;6.640;2023-04-15T10:08:18;9.90;99.90
51950;DHT22;37974;53.218;6.640;2023-04-15T10:10:44;9.90;99.90
51950;DHT22;37974;53.218;6.640;2023-04-15T10:13:13;9.90;99.90
51950;DHT22;37974;53.218;6.640;2023-04-15T10:15:44;9.80;99.90
51950;DHT22;37974;53.218;6.640;2023-04-15T10:18:16;9.80;99.90
51950;DHT22;37974;53.218;6.640;2023-04-15T10:20:43;9.90;99.90
51950;DHT22;37974;53.218;6.640;2023-04-15T10:23:11;9.80;99.90
51950;DHT22;37974;53.218;6.640;2023-04-15T10:25:37;9.70;99.90
51950;DHT22;37974;53.218;6.640;2023-04-15T10:28:05;9.60;99.90
51950;DHT22;37974;53.218;6.640;2023-04-15T10:30:32;9.60;99.90
51950;DHT22;37974;53.218;6.640;2023-04-15T10:33:00;9.60;99.90
51950;DHT22;37974;53.218;6.640;2023-04-15T10:35:28;9.50;99.90
51950;DHT22;37974;53.218;6.640;2023-04-15T10:37:55;9.40;99.90
51950;DHT22;37974;53.218;6.640;2023-04-15T10:40:28;9.40;99.90
51950;DHT22;37974;53.218;6.640;2023-04-15T10:42:58;9.40;99.90
51950;DHT22;37974;53.218;6.640;2023-04-15T10:45:26;9.30;99.90
51950;DHT22;37974;53.218;6.640;2023-04-15T10:47:56;9.30;99.90
51950;DHT22;37974;53.218;6.640;2023-04-15T10:50:24;9.40;99.90
51950;DHT22;37974;53.218;6.640;2023-04-15T10:52:50;9.50;99.90
51950;DHT22;37974;53.218;6.640;2023-04-15T10:55:20;9.50;99.90
51950;DHT22;37974;53.218;6.640;2023-04-15T10:57:46;9.40;99.90
51950;DHT22;37974;53.218;6.640;2023-04-15T11:00:17;9.30;99.90
51950;DHT22;37974;53.218;6.640;2023-04-15T11:02:51;9.20;99.90
51950;DHT22;37974;53.218;6.640;2023-04-15T11:05:18;9.20;99.90
51950;DHT22;37974;53.218;6.640;2023-04-15T11:07:52;9.20;99.90
51950;DHT22;37974;53.218;6.640;2023-04-15T11:12:46;9.20;99.90
51950;DHT22;37974;53.218;6.640;2023-04-15T11:15:42;9.20;99.90
51950;DHT22;37974;53.218;6.640;2023-04-15T11:18:13;9.30;99.90
51950;DHT22;37974;53.218;6.640;2023-04-15T11:20:40;9.30;99.90
51950;DHT22;37974;53.218;6.640;2023-04-15T11:23:07;9.50;99.90
51950;DHT22;37974;53.218;6.640;2023-04-15T11:25:34;9.80;99.90
51950;DHT22;37974;53.218;6.640;2023-04-15T11:28:02;9.70;99.90
51950;DHT22;37974;53.218;6.640;2023-04-15T11:30:30;9.80;99.90
51950;DHT22;37974;53.218;6.640;2023-04-15T11:32:58;9.90;99.90
51950;DHT22;37974;53.218;6.640;2023-04-15T11:35:24;9.90;99.90
51950;DHT22;37974;53.218;6.640;2023-04-15T11:37:50;9.90;99.90
51950;DHT22;37974;53.218;6.640;2023-04-15T11:40:21;9.80;99.90
51950;DHT22;37974;53.218;6.640;2023-04-15T11:43:04;9.80;99.90
51950;DHT22;37974;53.218;6.640;2023-04-15T11:45:30;9.80;99.90
51950;DHT22;37974;53.218;6.640;2023-04-15T11:48:05;9.80;99.90
51950;DHT22;37974;53.218;6.640;2023-04-15T11:50:32;9.80;99.90
51950;DHT22;37974;53.218;6.640;2023-04-15T11:53:01;9.70;99.90
51950;DHT22;37974;53.218;6.640;2023-04-15T11:55:28;9.70;99.90
51950;DHT22;37974;53.218;6.640;2023-04-15T11:58:19;9.70;99.90
51950;DHT22;37974;53.218;6.640;2023-04-15T12:00:49;9.70;99.90
51950;DHT22;37974;53.218;6.640;2023-04-15T12:03:18;9.60;99.90
51950;DHT22;37974;53.218;6.640;2023-04-15T12:11:27;9.80;99.90
51950;DHT22;37974;53.218;6.640;2023-04-15T12:13:57;9.80;99.90
51950;DHT22;37974;53.218;6.640;2023-04-15T12:16:24;9.70;99.90
51950;DHT22;37974;53.218;6.640;2023-04-15T12:18:51;9.70;99.90
51950;DHT22;37974;53.218;6.640;2023-04-15T12:21:19;9.60;99.90
51950;DHT22;37974;53.218;6.640;2023-04-15T12:23:51;9.60;99.90
51950;DHT22;37974;53.218;6.640;2023-04-15T12:26:20;9.60;99.90
51950;DHT22;37974;53.218;6.640;2023-04-15T12:28:54;9.60;99.90
51950;DHT22;37974;53.218;6.640;2023-04-15T12:31:20;9.50;99.90
51950;DHT22;37974;53.218;6.640;2023-04-15T12:33:47;9.50;99.90
51950;DHT22;37974;53.218;6.640;2023-04-15T12:36:14;9.40;99.90
51950;DHT22;37974;53.218;6.640;2023-04-15T12:38:40;9.40;99.90
51950;DHT22;37974;53.218;6.640;2023-04-15T12:41:05;9.40;99.90
51950;DHT22;37974;53.218;6.640;2023-04-15T12:43:31;9.60;99.90
51950;DHT22;37974;53.218;6.640;2023-04-15T12:45:57;9.30;99.90
51950;DHT22;37974;53.218;6.640;2023-04-15T12:48:23;9.20;99.90
51950;DHT22;37974;53.218;6.640;2023-04-15T12:50:48;9.20;99.90
51950;DHT22;37974;53.218;6.640;2023-04-15T12:53:14;9.20;99.90
51950;DHT22;37974;53.218;6.640;2023-04-15T12:55:40;9.20;99.90
51950;DHT22;37974;53.218;6.640;2023-04-15T12:58:06;9.00;99.90
51950;DHT22;37974;53.218;6.640;2023-04-15T13:00:33;8.90;99.90
51950;DHT22;37974;53.218;6.640;2023-04-15T13:02:59;8.90;99.90
51950;DHT22;37974;53.218;6.640;2023-04-15T13:05:25;8.70;99.90
51950;DHT22;37974;53.218;6.640;2023-04-15T13:07:51;8.80;99.90
51950;DHT22;37974;53.218;6.640;2023-04-15T13:10:16;8.80;99.90
51950;DHT22;37974;53.218;6.640;2023-04-15T13:12:42;8.80;99.90
51950;DHT22;37974;53.218;6.640;2023-04-15T13:15:08;8.80;99.90
51950;DHT22;37974;53.218;6.640;2023-04-15T13:17:37;8.80;99.90
51950;DHT22;37974;53.218;6.640;2023-04-15T13:20:03;8.80;99.90
51950;DHT22;37974;53.218;6.640;2023-04-15T13:22:29;8.90;99.90
51950;DHT22;37974;53.218;6.640;2023-04-15T13:24:55;8.90;99.90
51950;DHT22;37974;53.218;6.640;2023-04-15T13:27:21;8.90;99.90
51950;DHT22;37974;53.218;6.640;2023-04-15T13:29:46;8.90;99.90
51950;DHT22;37974;53.218;6.640;2023-04-15T13:32:12;8.90;99.90
51950;DHT22;37974;53.218;6.640;2023-04-15T13:34:38;8.80;99.90
51950;DHT22;37974;53.218;6.640;2023-04-15T13:37:06;9.00;99.90
51950;DHT22;37974;53.218;6.640;2023-04-15T13:39:32;8.80;99.90
51950;DHT22;37974;53.218;6.640;2023-04-15T13:41:58;8.80;99.90
51950;DHT22;37974;53.218;6.640;2023-04-15T13:44:24;8.80;99.90
51950;DHT22;37974;53.218;6.640;2023-04-15T13:46:49;8.80;99.90
51950;DHT22;37974;53.218;6.640;2023-04-15T13:49:16;8.80;99.90
51950;DHT22;37974;53.218;6.640;2023-04-15T13:51:41;8.80;99.90
51950;DHT22;37974;53.218;6.640;2023-04-15T13:54:07;8.90;99.90
51950;DHT22;37974;53.218;6.640;2023-04-15T13:56:33;9.00;99.90
51950;DHT22;37974;53.218;6.640;2023-04-15T13:58:58;8.90;99.90
51950;DHT22;37974;53.218;6.640;2023-04-15T14:01:27;8.90;99.90
51950;DHT22;37974;53.218;6.640;2023-04-15T14:03:52;8.90;99.90
51950;DHT22;37974;53.218;6.640;2023-04-15T14:06:18;8.90;99.90
51950;DHT22;37974;53.218;6.640;2023-04-15T14:08:45;8.80;99.90
51950;DHT22;37974;53.218;6.640;2023-04-15T14:11:11;8.80;99.90
51950;DHT22;37974;53.218;6.640;2023-04-15T14:13:36;8.80;99.90
51950;DHT22;37974;53.218;6.640;2023-04-15T14:16:02;8.80;99.90
51950;DHT22;37974;53.218;6.640;2023-04-15T14:18:28;8.70;99.90
51950;DHT22;37974;53.218;6.640;2023-04-15T14:20:55;8.70;99.90
51950;DHT22;37974;53.218;6.640;2023-04-15T14:23:21;8.70;99.90
51950;DHT22;37974;53.218;6.640;2023-04-15T14:25:47;9.00;99.90
51950;DHT22;37974;53.218;6.640;2023-04-15T14:28:13;8.70;99.90
51950;DHT22;37974;53.218;6.640;2023-04-15T14:30:38;8.70;99.90
51950;DHT22;37974;53.218;6.640;2023-04-15T14:33:04;8.60;99.90
51950;DHT22;37974;53.218;6.640;2023-04-15T14:35:31;8.70;99.90
51950;DHT22;37974;53.218;6.640;2023-04-15T14:37:57;8.60;99.90
51950;DHT22;37974;53.218;6.640;2023-04-15T14:40:23;8.60;99.90
51950;DHT22;37974;53.218;6.640;2023-04-15T14:42:48;8.50;99.90
51950;DHT22;37974;53.218;6.640;2023-04-15T14:45:14;8.50;99.90
51950;DHT22;37974;53.218;6.640;2023-04-15T14:47:40;8.40;99.90
51950;DHT22;37974;53.218;6.640;2023-04-15T14:50:06;8.40;99.90
51950;DHT22;37974;53.218;6.640;2023-04-15T14:52:32;8.40;99.90
51950;DHT22;37974;53.218;6.640;2023-04-15T14:55:05;8.40;99.90
51950;DHT22;37974;53.218;6.640;2023-04-15T14:57:30;8.40;99.90
51950;DHT22;37974;53.218;6.640;2023-04-15T14:59:56;8.30;99.90
51950;DHT22;37974;53.218;6.640;2023-04-15T15:02:22;8.30;99.90
51950;DHT22;37974;53.218;6.640;2023-04-15T15:04:48;8.30;99.90
51950;DHT22;37974;53.218;6.640;2023-04-15T15:07:13;8.30;99.90
51950;DHT22;37974;53.218;6.640;2023-04-15T15:09:39;8.20;99.90
51950;DHT22;37974;53.218;6.640;2023-04-15T15:12:06;8.20;99.90
51950;DHT22;37974;53.218;6.640;2023-04-15T15:14:31;8.20;99.90
51950;DHT22;37974;53.218;6.640;2023-04-15T15:16:57;8.20;99.90
51950;DHT22;37974;53.218;6.640;2023-04-15T15:19:23;8.20;99.90
51950;DHT22;37974;53.218;6.640;2023-04-15T15:21:49;8.20;99.90
51950;DHT22;37974;53.218;6.640;2023-04-15T15:24:16;8.20;99.90
51950;DHT22;37974;53.218;6.640;2023-04-15T15:26:42;8.20;99.90
51950;DHT22;37974;53.218;6.640;2023-04-15T15:29:08;8.20;99.90
51950;DHT22;37974;53.218;6.640;2023-04-15T15:31:34;8.20;99.90
51950;DHT22;37974;53.218;6.640;2023-04-15T15:34:00;8.20;99.90
51950;DHT22;37974;53.218;6.640;2023-04-15T15:36:26;8.20;99.90
51950;DHT22;37974;53.218;6.640;2023-04-15T15:38:52;8.20;99.90
51950;DHT22;37974;53.218;6.640;2023-04-15T15:41:18;8.20;99.90
51950;DHT22;37974;53.218;6.640;2023-04-15T15:43:43;8.10;99.90
51950;DHT22;37974;53.218;6.640;2023-04-15T15:46:09;8.30;99.90
51950;DHT22;37974;53.218;6.640;2023-04-15T15:48:35;8.10;99.90